createdAt,value
2023-01-27T00:01:46.914Z,25.90
2023-01-27T00:04:32.208Z,25.08
2023-01-27T00:07:17.768Z,24.12
2023-01-27T00:10:03.151Z,23.02
2023-01-27T00:13:07.647Z,22.40
2023-01-27T00:15:53.337Z,21.60
2023-01-27T00:18:38.398Z,24.60
2023-01-27T00:21:42.468Z,22.23
2023-01-27T00:24:36.980Z,24.60
2023-01-27T00:27:22.745Z,23.98
2023-01-27T00:30:09.153Z,23.67
2023-01-27T00:33:13.265Z,26.30
2023-01-27T00:38:44.587Z,22.15
2023-01-27T00:41:30.787Z,23.17
2023-01-27T00:44:16.308Z,20.92
2023-01-27T00:47:01.639Z,23.87
2023-01-27T00:49:46.939Z,22.20
2023-01-27T00:52:32.086Z,22.02
2023-01-27T00:55:18.281Z,25.80
2023-01-27T00:58:04.425Z,26.30
2023-01-27T01:00:49.852Z,27.98
2023-01-27T01:03:36.421Z,30.85
2023-01-27T01:06:21.662Z,28.73
2023-01-27T01:09:10.531Z,24.27
2023-01-27T01:11:56.280Z,29.00
2023-01-27T01:14:41.615Z,30.45
2023-01-27T01:17:26.971Z,30.30
2023-01-27T01:20:13.015Z,31.73
2023-01-27T01:22:58.423Z,28.90
2023-01-27T01:25:43.619Z,26.77
2023-01-27T01:28:28.899Z,26.20
2023-01-27T01:31:19.229Z,22.13
2023-01-27T01:34:04.902Z,17.27
2023-01-27T01:36:50.312Z,19.58
2023-01-27T01:39:35.625Z,15.38
2023-01-27T01:42:21.034Z,21.92
2023-01-27T01:45:31.462Z,14.18
2023-01-27T01:48:36.906Z,19.40
2023-01-27T01:51:26.992Z,15.95
2023-01-27T01:54:19.619Z,13.90
2023-01-27T01:57:05.104Z,14.98
2023-01-27T01:59:53.895Z,14.05
2023-01-27T02:02:40.162Z,11.43
2023-01-27T02:05:31.094Z,10.90
2023-01-27T02:08:40.165Z,9.18
2023-01-27T02:11:25.500Z,11.63
2023-01-27T02:14:13.251Z,9.30
2023-01-27T02:16:58.587Z,14.73
2023-01-27T02:20:34.872Z,8.88
2023-01-27T02:23:38.339Z,10.10
2023-01-27T02:26:34.050Z,9.33
2023-01-27T02:29:19.139Z,9.10
2023-01-27T02:32:04.590Z,10.05
2023-01-27T02:34:50.162Z,9.18
2023-01-27T02:37:36.027Z,8.60
2023-01-27T02:40:21.724Z,7.87
2023-01-27T02:43:06.791Z,9.77
2023-01-27T02:45:52.344Z,8.73
2023-01-27T02:48:37.459Z,10.13
2023-01-27T02:51:24.281Z,10.75
2023-01-27T02:54:09.411Z,11.27
2023-01-27T02:56:54.780Z,11.07
2023-01-27T02:59:40.004Z,11.50
2023-01-27T03:02:30.521Z,12.52
2023-01-27T03:05:16.168Z,13.35
2023-01-27T03:08:01.678Z,10.80
2023-01-27T03:10:51.964Z,14.52
2023-01-27T03:13:37.609Z,11.27
2023-01-27T03:16:41.405Z,14.90
2023-01-27T03:19:29.529Z,13.45
2023-01-27T03:22:15.116Z,17.60
2023-01-27T03:25:00.566Z,18.80
2023-01-27T03:27:46.604Z,18.95
2023-01-27T03:30:31.817Z,15.10
2023-01-27T03:33:17.137Z,19.85
2023-01-27T03:36:21.578Z,18.75
2023-01-27T03:39:25.655Z,17.25
2023-01-27T03:42:29.307Z,16.10
2023-01-27T03:45:33.463Z,16.20
2023-01-27T03:48:20.965Z,20.98
2023-01-27T03:51:08.015Z,21.50
2023-01-27T03:53:53.550Z,15.80
2023-01-27T03:56:38.795Z,19.58
2023-01-27T03:59:24.171Z,19.70
2023-01-27T04:02:28.235Z,19.10
2023-01-27T04:08:17.651Z,18.00
2023-01-27T04:11:22.507Z,18.48
2023-01-27T04:14:08.679Z,23.08
2023-01-27T04:16:56.290Z,22.60
2023-01-27T04:19:41.835Z,18.23
2023-01-27T04:22:27.305Z,20.98
2023-01-27T04:25:13.491Z,22.98
2023-01-27T04:27:59.010Z,22.65
2023-01-27T04:30:44.365Z,19.90
2023-01-27T04:33:29.942Z,20.45
2023-01-27T04:36:15.714Z,23.90
2023-01-27T04:39:00.852Z,19.23
2023-01-27T04:41:46.731Z,22.35
2023-01-27T04:44:31.729Z,21.42
2023-01-27T04:47:17.104Z,22.75
2023-01-27T04:50:02.382Z,20.42
2023-01-27T04:52:47.667Z,23.38
2023-01-27T04:55:33.096Z,22.98
2023-01-27T04:58:18.369Z,20.67
2023-01-27T05:01:04.081Z,22.27
2023-01-27T05:03:49.582Z,22.15
2023-01-27T05:06:34.939Z,20.80
2023-01-27T05:09:20.268Z,19.30
2023-01-27T05:12:05.879Z,21.45
2023-01-27T05:14:51.236Z,24.23
2023-01-27T05:17:36.505Z,22.92
2023-01-27T05:20:21.900Z,21.23
2023-01-27T05:23:26.123Z,22.05
2023-01-27T05:26:17.492Z,24.65
2023-01-27T05:29:02.860Z,24.12
2023-01-27T05:31:48.112Z,24.17
2023-01-27T05:34:33.428Z,20.27
2023-01-27T05:37:18.632Z,22.40
2023-01-27T05:40:04.489Z,19.92
2023-01-27T05:42:51.987Z,19.85
2023-01-27T05:45:37.446Z,23.12
2023-01-27T05:48:22.724Z,23.58
2023-01-27T05:51:08.544Z,27.67
2023-01-27T05:53:55.011Z,19.23
2023-01-27T05:56:40.869Z,23.35
2023-01-27T05:59:26.560Z,22.73
2023-01-27T06:02:12.205Z,23.50
2023-01-27T06:04:57.199Z,23.20
2023-01-27T06:07:43.261Z,22.55
2023-01-27T06:10:28.763Z,23.75
2023-01-27T06:13:14.608Z,25.10
2023-01-27T06:16:02.376Z,24.42
2023-01-27T06:18:48.414Z,26.80
2023-01-27T06:21:33.735Z,23.17
2023-01-27T06:24:19.465Z,26.62
2023-01-27T06:27:04.946Z,24.33
2023-01-27T06:29:51.116Z,23.55
2023-01-27T06:32:37.452Z,23.60
2023-01-27T06:35:23.404Z,23.80
2023-01-27T06:38:12.601Z,22.45
2023-01-27T06:40:58.660Z,27.00
2023-01-27T06:43:44.287Z,27.00
2023-01-27T06:46:30.160Z,23.60
2023-01-27T06:49:15.619Z,23.48
2023-01-27T06:52:01.262Z,27.92
2023-01-27T06:54:46.991Z,27.77
2023-01-27T06:57:32.946Z,27.90
2023-01-27T07:00:19.242Z,31.58
2023-01-27T07:03:06.854Z,23.70
2023-01-27T07:05:53.805Z,26.08
2023-01-27T07:08:40.131Z,32.38
2023-01-27T07:11:26.915Z,25.02
2023-01-27T07:14:17.422Z,30.77
2023-01-27T07:17:08.731Z,24.67
2023-01-27T07:19:55.190Z,26.65
2023-01-27T07:22:40.518Z,26.95
2023-01-27T07:25:29.210Z,30.58
2023-01-27T07:28:15.055Z,27.05
2023-01-27T07:31:02.272Z,28.08
2023-01-27T07:33:48.316Z,27.73
2023-01-27T07:36:33.742Z,28.27
2023-01-27T07:39:19.125Z,28.83
2023-01-27T07:42:05.455Z,28.95
2023-01-27T07:44:51.778Z,26.00
2023-01-27T07:47:37.618Z,27.10
2023-01-27T07:50:23.658Z,28.45
2023-01-27T07:53:11.180Z,26.83
2023-01-27T07:55:59.812Z,31.23
2023-01-27T07:58:45.578Z,29.08
2023-01-27T08:01:37.845Z,28.48
2023-01-27T08:04:24.600Z,27.13
2023-01-27T08:07:09.533Z,25.88
2023-01-27T08:10:01.548Z,28.05
2023-01-27T08:12:47.672Z,27.73
2023-01-27T08:15:33.223Z,27.40
2023-01-27T08:18:18.206Z,23.70
2023-01-27T08:21:05.750Z,22.48
2023-01-27T08:23:53.360Z,22.65
2023-01-27T08:26:39.113Z,20.45
2023-01-27T08:29:24.989Z,23.60
2023-01-27T08:32:15.275Z,21.60
2023-01-27T08:35:00.564Z,21.70
2023-01-27T08:37:51.983Z,21.42
2023-01-27T08:40:38.980Z,22.52
2023-01-27T08:43:24.570Z,22.05
2023-01-27T08:46:10.710Z,21.67
2023-01-27T08:48:56.553Z,21.87
2023-01-27T08:51:43.852Z,20.83
2023-01-27T08:54:29.107Z,18.17
2023-01-27T08:57:14.858Z,20.27
2023-01-27T09:00:01.170Z,20.77
2023-01-27T09:02:47.881Z,19.58
2023-01-27T09:05:35.915Z,20.30
2023-01-27T09:08:21.128Z,21.65
2023-01-27T09:11:16.576Z,20.23
2023-01-27T09:14:03.437Z,23.58
2023-01-27T09:16:50.066Z,18.90
2023-01-27T09:19:37.638Z,19.50
2023-01-27T09:22:22.938Z,18.65
2023-01-27T09:25:11.397Z,22.33
2023-01-27T09:27:58.581Z,24.40
2023-01-27T09:30:46.429Z,20.30
2023-01-27T09:33:32.739Z,70.03
2023-01-27T09:36:20.265Z,24.25
2023-01-27T09:41:15.374Z,25.08
2023-01-27T09:44:04.068Z,29.92
2023-01-27T09:47:08.199Z,24.00
2023-01-27T09:50:19.087Z,27.30
2023-01-27T09:53:15.925Z,25.15
2023-01-27T09:56:13.771Z,25.60
2023-01-27T09:59:30.400Z,25.80
2023-01-27T10:02:46.926Z,24.33
2023-01-27T10:05:36.001Z,24.55
2023-01-27T10:08:30.407Z,21.55
2023-01-27T10:11:26.228Z,25.27
2023-01-27T10:14:20.665Z,23.30
2023-01-27T10:17:25.755Z,26.17
2023-01-27T10:20:18.418Z,27.27
2023-01-27T10:23:25.573Z,25.58
2023-01-27T10:26:31.824Z,24.40
2023-01-27T10:29:55.897Z,21.00
2023-01-27T10:33:03.224Z,21.77
2023-01-27T10:35:59.828Z,20.98
2023-01-27T10:39:03.910Z,24.77
2023-01-27T10:41:55.552Z,23.30
2023-01-27T10:44:55.915Z,19.30
2023-01-27T10:48:06.403Z,19.58
2023-01-27T10:51:05.259Z,21.40
2023-01-27T10:54:01.093Z,23.55
2023-01-27T10:57:09.865Z,24.48
2023-01-27T11:03:28.392Z,24.23
2023-01-27T11:06:22.615Z,25.08
2023-01-27T11:09:12.946Z,23.73
2023-01-27T11:12:02.897Z,23.85
2023-01-27T11:14:50.113Z,20.37
2023-01-27T11:17:39.306Z,23.87
2023-01-27T11:20:31.248Z,21.15
2023-01-27T11:23:18.281Z,24.00
2023-01-27T11:26:16.412Z,20.95
2023-01-27T11:29:13.857Z,22.60
